sensor_id;sensor_type;location;lat;lon;timestamp;temperature;humidity
1155;DHT22;566;48.414;9.118;2023-04-24T00:00:11;10.60;92.90
1155;DHT22;566;48.414;9.118;2023-04-24T00:02:41;10.70;92.90
1155;DHT22;566;48.414;9.118;2023-04-24T00:05:12;10.70;93.00
1155;DHT22;566;48.414;9.118;2023-04-24T00:07:39;10.60;93.50
1155;DHT22;566;48.414;9.118;2023-04-24T00:10:05;10.60;93.20
1155;DHT22;566;48.414;9.118;2023-04-24T00:12:31;10.60;93.50
1155;DHT22;566;48.414;9.118;2023-04-24T00:14:57;10.60;93.50
1155;DHT22;566;48.414;9.118;2023-04-24T00:17:22;10.70;93.40
1155;DHT22;566;48.414;9.118;2023-04-24T00:19:49;10.60;93.80
1155;DHT22;566;48.414;9.118;2023-04-24T00:22:17;10.60;94.10
1155;DHT22;566;48.414;9.118;2023-04-24T00:24:43;10.60;93.60
1155;DHT22;566;48.414;9.118;2023-04-24T00:27:11;10.60;93.80
1155;DHT22;566;48.414;9.118;2023-04-24T00:29:37;10.60;93.70
1155;DHT22;566;48.414;9.118;2023-04-24T00:32:02;10.60;94.10
1155;DHT22;566;48.414;9.118;2023-04-24T00:34:31;10.60;94.50
1155;DHT22;566;48.414;9.118;2023-04-24T00:36:57;10.50;94.80
1155;DHT22;566;48.414;9.118;2023-04-24T00:39:23;10.40;95.60
1155;DHT22;566;48.414;9.118;2023-04-24T00:41:49;10.30;95.80
1155;DHT22;566;48.414;9.118;2023-04-24T00:44:16;10.20;96.70
1155;DHT22;566;48.414;9.118;2023-04-24T00:46:42;10.10;96.80
1155;DHT22;566;48.414;9.118;2023-04-24T00:49:08;10.00;97.30
1155;DHT22;566;48.414;9.118;2023-04-24T00:51:33;9.90;97.10
1155;DHT22;566;48.414;9.118;2023-04-24T00:54:00;9.90;97.10
1155;DHT22;566;48.414;9.118;2023-04-24T00:56:25;9.80;97.40
1155;DHT22;566;48.414;9.118;2023-04-24T00:58:51;9.80;97.40
1155;DHT22;566;48.414;9.118;2023-04-24T01:01:18;9.90;97.30
1155;DHT22;566;48.414;9.118;2023-04-24T01:03:46;10.00;97.30
1155;DHT22;566;48.414;9.118;2023-04-24T01:06:12;10.00;97.00
1155;DHT22;566;48.414;9.118;2023-04-24T01:08:38;10.00;97.60
1155;DHT22;566;48.414;9.118;2023-04-24T01:11:05;10.00;98.00
1155;DHT22;566;48.414;9.118;2023-04-24T01:13:32;9.90;97.30
1155;DHT22;566;48.414;9.118;2023-04-24T01:15:58;9.80;97.90
1155;DHT22;566;48.414;9.118;2023-04-24T01:18:24;9.70;97.00
1155;DHT22;566;48.414;9.118;2023-04-24T01:20:51;9.60;97.40
1155;DHT22;566;48.414;9.118;2023-04-24T01:23:18;9.50;96.90
1155;DHT22;566;48.414;9.118;2023-04-24T01:25:44;9.40;96.80
1155;DHT22;566;48.414;9.118;2023-04-24T01:28:10;9.40;96.10
1155;DHT22;566;48.414;9.118;2023-04-24T01:30:35;9.40;97.50
1155;DHT22;566;48.414;9.118;2023-04-24T01:33:02;9.40;96.70
1155;DHT22;566;48.414;9.118;2023-04-24T01:35:28;9.30;96.70
1155;DHT22;566;48.414;9.118;2023-04-24T01:37:53;9.30;96.40
1155;DHT22;566;48.414;9.118;2023-04-24T01:40:19;9.20;96.20
1155;DHT22;566;48.414;9.118;2023-04-24T01:42:45;9.20;95.80
1155;DHT22;566;48.414;9.118;2023-04-24T01:45:14;9.10;94.60
1155;DHT22;566;48.414;9.118;2023-04-24T01:47:39;9.10;96.20
1155;DHT22;566;48.414;9.118;2023-04-24T01:50:06;9.10;96.60
1155;DHT22;566;48.414;9.118;2023-04-24T01:52:32;9.00;95.70
1155;DHT22;566;48.414;9.118;2023-04-24T01:55:02;9.00;96.30
1155;DHT22;566;48.414;9.118;2023-04-24T01:57:30;9.10;96.60
1155;DHT22;566;48.414;9.118;2023-04-24T01:59:56;9.10;97.30
1155;DHT22;566;48.414;9.118;2023-04-24T02:02:22;9.10;97.00
1155;DHT22;566;48.414;9.118;2023-04-24T02:04:49;9.30;97.50
1155;DHT22;566;48.414;9.118;2023-04-24T02:07:15;9.30;97.20
1155;DHT22;566;48.414;9.118;2023-04-24T02:09:41;9.40;97.90
1155;DHT22;566;48.414;9.118;2023-04-24T02:12:07;9.40;97.60
1155;DHT22;566;48.414;9.118;2023-04-24T02:14:32;9.30;97.10
1155;DHT22;566;48.414;9.118;2023-04-24T02:16:58;9.40;96.90
1155;DHT22;566;48.414;9.118;2023-04-24T02:19:23;9.30;96.60
1155;DHT22;566;48.414;9.118;2023-04-24T02:21:49;9.20;96.20
1155;DHT22;566;48.414;9.118;2023-04-24T02:24:15;9.20;95.90
1155;DHT22;566;48.414;9.118;2023-04-24T02:26:41;9.10;94.80
1155;DHT22;566;48.414;9.118;2023-04-24T02:29:06;8.90;92.30
1155;DHT22;566;48.414;9.118;2023-04-24T02:31:32;8.80;93.00
1155;DHT22;566;48.414;9.118;2023-04-24T02:33:57;8.80;91.80
1155;DHT22;566;48.414;9.118;2023-04-24T02:36:23;8.70;92.20
1155;DHT22;566;48.414;9.118;2023-04-24T02:38:49;8.60;89.80
1155;DHT22;566;48.414;9.118;2023-04-24T02:41:14;8.60;88.60
1155;DHT22;566;48.414;9.118;2023-04-24T02:43:40;8.60;89.90
1155;DHT22;566;48.414;9.118;2023-04-24T02:46:05;8.50;88.30
1155;DHT22;566;48.414;9.118;2023-04-24T02:48:31;8.50;87.20
1155;DHT22;566;48.414;9.118;2023-04-24T02:50:57;8.40;85.90
1155;DHT22;566;48.414;9.118;2023-04-24T02:53:32;8.40;87.30
1155;DHT22;566;48.414;9.118;2023-04-24T02:56:02;8.40;87.30
1155;DHT22;566;48.414;9.118;2023-04-24T02:58:30;8.40;86.60
1155;DHT22;566;48.414;9.118;2023-04-24T03:00:58;8.30;86.40
1155;DHT22;566;48.414;9.118;2023-04-24T03:03:24;8.40;86.70
1155;DHT22;566;48.414;9.118;2023-04-24T03:05:50;8.40;86.90
1155;DHT22;566;48.414;9.118;2023-04-24T03:08:16;8.40;86.70
1155;DHT22;566;48.414;9.118;2023-04-24T03:10:41;8.30;87.40
1155;DHT22;566;48.414;9.118;2023-04-24T03:13:07;8.40;89.00
1155;DHT22;566;48.414;9.118;2023-04-24T03:15:32;8.50;91.30
1155;DHT22;566;48.414;9.118;2023-04-24T03:17:58;8.50;91.20
1155;DHT22;566;48.414;9.118;2023-04-24T03:20:23;8.50;93.20
1155;DHT22;566;48.414;9.118;2023-04-24T03:22:52;8.60;93.20
1155;DHT22;566;48.414;9.118;2023-04-24T03:25:17;8.60;93.90
1155;DHT22;566;48.414;9.118;2023-04-24T03:27:43;8.60;93.30
1155;DHT22;566;48.414;9.118;2023-04-24T03:30:09;8.60;93.90
1155;DHT22;566;48.414;9.118;2023-04-24T03:32:34;8.60;93.90
1155;DHT22;566;48.414;9.118;2023-04-24T03:35:00;8.60;91.00
1155;DHT22;566;48.414;9.118;2023-04-24T03:37:26;8.60;87.70
1155;DHT22;566;48.414;9.118;2023-04-24T03:39:52;8.50;85.50
1155;DHT22;566;48.414;9.118;2023-04-24T03:42:20;8.50;84.80
1155;DHT22;566;48.414;9.118;2023-04-24T03:44:46;8.40;83.70
1155;DHT22;566;48.414;9.118;2023-04-24T03:47:11;8.40;83.00
1155;DHT22;566;48.414;9.118;2023-04-24T03:49:37;8.30;82.00
1155;DHT22;566;48.414;9.118;2023-04-24T03:52:02;8.40;81.40
1155;DHT22;566;48.414;9.118;2023-04-24T03:54:28;8.30;81.30
1155;DHT22;566;48.414;9.118;2023-04-24T03:56:53;8.20;79.60
1155;DHT22;566;48.414;9.118;2023-04-24T03:59:19;8.10;80.10
1155;DHT22;566;48.414;9.118;2023-04-24T04:01:46;8.20;80.60
1155;DHT22;566;48.414;9.118;2023-04-24T04:04:11;8.20;83.60
1155;DHT22;566;48.414;9.118;2023-04-24T04:06:37;8.10;85.40
1155;DHT22;566;48.414;9.118;2023-04-24T04:09:03;8.10;86.20
1155;DHT22;566;48.414;9.118;2023-04-24T04:11:28;8.10;90.70
1155;DHT22;566;48.414;9.118;2023-04-24T04:13:54;8.30;93.00
1155;DHT22;566;48.414;9.118;2023-04-24T04:16:20;8.30;92.70
1155;DHT22;566;48.414;9.118;2023-04-24T04:18:45;8.20;91.60
1155;DHT22;566;48.414;9.118;2023-04-24T04:21:11;8.20;91.60
1155;DHT22;566;48.414;9.118;2023-04-24T04:23:37;8.20;92.00
1155;DHT22;566;48.414;9.118;2023-04-24T04:26:03;8.10;93.50
1155;DHT22;566;48.414;9.118;2023-04-24T04:28:29;8.20;95.30
1155;DHT22;566;48.414;9.118;2023-04-24T04:30:57;8.40;96.30
1155;DHT22;566;48.414;9.118;2023-04-24T04:33:23;8.40;97.10
1155;DHT22;566;48.414;9.118;2023-04-24T04:35:49;8.50;96.10
1155;DHT22;566;48.414;9.118;2023-04-24T04:38:15;8.60;96.70
1155;DHT22;566;48.414;9.118;2023-04-24T04:40:42;8.70;98.00
1155;DHT22;566;48.414;9.118;2023-04-24T04:43:07;8.90;98.00
1155;DHT22;566;48.414;9.118;2023-04-24T04:45:33;9.00;97.90
1155;DHT22;566;48.414;9.118;2023-04-24T04:48:00;9.10;98.00
1155;DHT22;566;48.414;9.118;2023-04-24T04:50:27;9.10;97.50
1155;DHT22;566;48.414;9.118;2023-04-24T04:52:52;9.00;95.30
1155;DHT22;566;48.414;9.118;2023-04-24T04:55:18;8.40;90.10
1155;DHT22;566;48.414;9.118;2023-04-24T04:57:45;7.80;90.00
1155;DHT22;566;48.414;9.118;2023-04-24T05:00:12;7.40;87.10
1155;DHT22;566;48.414;9.118;2023-04-24T05:02:41;7.30;83.40
1155;DHT22;566;48.414;9.118;2023-04-24T05:05:07;7.20;81.00
1155;DHT22;566;48.414;9.118;2023-04-24T05:07:33;7.10;80.00
1155;DHT22;566;48.414;9.118;2023-04-24T05:09:58;7.10;79.20
1155;DHT22;566;48.414;9.118;2023-04-24T05:12:24;7.00;78.10
1155;DHT22;566;48.414;9.118;2023-04-24T05:14:49;7.00;76.40
1155;DHT22;566;48.414;9.118;2023-04-24T05:17:15;7.00;75.50
1155;DHT22;566;48.414;9.118;2023-04-24T05:19:41;7.00;77.00
1155;DHT22;566;48.414;9.118;2023-04-24T05:22:07;7.00;75.60
1155;DHT22;566;48.414;9.118;2023-04-24T05:24:33;7.00;74.80
1155;DHT22;566;48.414;9.118;2023-04-24T05:26:59;7.00;76.50
1155;DHT22;566;48.414;9.118;2023-04-24T05:29:25;7.00;79.90
1155;DHT22;566;48.414;9.118;2023-04-24T05:31:51;6.90;85.10
1155;DHT22;566;48.414;9.118;2023-04-24T05:34:17;6.80;86.30
1155;DHT22;566;48.414;9.118;2023-04-24T05:36:43;6.80;85.80
1155;DHT22;566;48.414;9.118;2023-04-24T05:39:09;6.70;84.60
1155;DHT22;566;48.414;9.118;2023-04-24T05:41:34;6.70;83.40
1155;DHT22;566;48.414;9.118;2023-04-24T05:44:00;6.70;84.10
1155;DHT22;566;48.414;9.118;2023-04-24T05:46:26;6.70;86.50
1155;DHT22;566;48.414;9.118;2023-04-24T05:48:51;6.70;87.60
1155;DHT22;566;48.414;9.118;2023-04-24T05:51:17;6.70;88.20
1155;DHT22;566;48.414;9.118;2023-04-24T05:53:42;6.80;90.70
1155;DHT22;566;48.414;9.118;2023-04-24T05:56:08;6.70;91.00
1155;DHT22;566;48.414;9.118;2023-04-24T05:58:34;6.80;90.50
1155;DHT22;566;48.414;9.118;2023-04-24T06:00:59;6.90;88.90
1155;DHT22;566;48.414;9.118;2023-04-24T06:03:26;7.00;93.60
1155;DHT22;566;48.414;9.118;2023-04-24T06:05:53;7.10;91.20
1155;DHT22;566;48.414;9.118;2023-04-24T06:08:19;7.20;93.10
1155;DHT22;566;48.414;9.118;2023-04-24T06:10:44;7.40;93.20
1155;DHT22;566;48.414;9.118;2023-04-24T06:13:10;7.60;92.80
1155;DHT22;566;48.414;9.118;2023-04-24T06:15:39;7.80;95.80
1155;DHT22;566;48.414;9.118;2023-04-24T06:18:08;7.80;93.40
1155;DHT22;566;48.414;9.118;2023-04-24T06:20:35;7.90;94.40
1155;DHT22;566;48.414;9.118;2023-04-24T06:23:01;8.10;95.00
1155;DHT22;566;48.414;9.118;2023-04-24T06:25:27;8.20;97.10
1155;DHT22;566;48.414;9.118;2023-04-24T06:27:54;8.30;97.20
1155;DHT22;566;48.414;9.118;2023-04-24T06:30:19;8.40;97.90
1155;DHT22;566;48.414;9.118;2023-04-24T06:32:45;8.20;95.80
1155;DHT22;566;48.414;9.118;2023-04-24T06:35:10;8.00;96.00
1155;DHT22;566;48.414;9.118;2023-04-24T06:37:39;8.00;98.00
1155;DHT22;566;48.414;9.118;2023-04-24T06:40:06;8.00;95.50
1155;DHT22;566;48.414;9.118;2023-04-24T06:42:32;8.10;95.90
1155;DHT22;566;48.414;9.118;2023-04-24T06:44:57;8.20;96.10
1155;DHT22;566;48.414;9.118;2023-04-24T06:47:23;8.30;97.00
1155;DHT22;566;48.414;9.118;2023-04-24T06:49:49;8.60;98.00
1155;DHT22;566;48.414;9.118;2023-04-24T06:52:16;8.90;98.00
1155;DHT22;566;48.414;9.118;2023-04-24T06:54:44;9.20;98.00
1155;DHT22;566;48.414;9.118;2023-04-24T06:57:10;9.20;98.00
1155;DHT22;566;48.414;9.118;2023-04-24T06:59:36;8.80;98.00
1155;DHT22;566;48.414;9.118;2023-04-24T07:02:02;8.80;98.00
1155;DHT22;566;48.414;9.118;2023-04-24T07:04:28;8.80;98.00
1155;DHT22;566;48.414;9.118;2023-04-24T07:06:54;9.00;97.90
1155;DHT22;566;48.414;9.118;2023-04-24T07:09:21;9.30;98.00
1155;DHT22;566;48.414;9.118;2023-04-24T07:11:47;9.20;98.00
1155;DHT22;566;48.414;9.118;2023-04-24T07:14:13;9.20;98.00
1155;DHT22;566;48.414;9.118;2023-04-24T07:16:39;9.20;98.00
1155;DHT22;566;48.414;9.118;2023-04-24T07:19:04;9.20;98.00
1155;DHT22;566;48.414;9.118;2023-04-24T07:21:30;9.10;98.00
1155;DHT22;566;48.414;9.118;2023-04-24T07:23:57;8.90;98.00
1155;DHT22;566;48.414;9.118;2023-04-24T07:26:23;8.90;97.50
1155;DHT22;566;48.414;9.118;2023-04-24T07:28:48;8.80;97.80
1155;DHT22;566;48.414;9.118;2023-04-24T07:31:14;8.70;96.90
1155;DHT22;566;48.414;9.118;2023-04-24T07:33:40;8.60;97.40
1155;DHT22;566;48.414;9.118;2023-04-24T07:36:05;8.50;97.10
1155;DHT22;566;48.414;9.118;2023-04-24T07:38:31;8.50;97.40
1155;DHT22;566;48.414;9.118;2023-04-24T07:41:00;8.60;98.00
1155;DHT22;566;48.414;9.118;2023-04-24T07:43:25;8.70;98.00
1155;DHT22;566;48.414;9.118;2023-04-24T07:45:51;8.60;97.70
1155;DHT22;566;48.414;9.118;2023-04-24T07:48:17;8.20;98.00
1155;DHT22;566;48.414;9.118;2023-04-24T07:50:43;7.80;97.40
1155;DHT22;566;48.414;9.118;2023-04-24T07:53:09;7.80;97.10
1155;DHT22;566;48.414;9.118;2023-04-24T07:55:35;8.10;96.50
1155;DHT22;566;48.414;9.118;2023-04-24T07:58:01;8.60;98.00
1155;DHT22;566;48.414;9.118;2023-04-24T08:00:26;8.90;98.00
1155;DHT22;566;48.414;9.118;2023-04-24T08:02:52;9.20;98.00
1155;DHT22;566;48.414;9.118;2023-04-24T08:05:17;9.20;98.00
1155;DHT22;566;48.414;9.118;2023-04-24T08:07:43;9.30;98.00
1155;DHT22;566;48.414;9.118;2023-04-24T08:10:10;9.60;97.90
1155;DHT22;566;48.414;9.118;2023-04-24T08:12:37;9.70;96.50
1155;DHT22;566;48.414;9.118;2023-04-24T08:15:03;9.80;96.90
1155;DHT22;566;48.414;9.118;2023-04-24T08:17:29;9.70;96.40
1155;DHT22;566;48.414;9.118;2023-04-24T08:19:55;9.50;96.00
1155;DHT22;566;48.414;9.118;2023-04-24T08:22:27;9.50;97.00
1155;DHT22;566;48.414;9.118;2023-04-24T08:24:53;9.50;97.30
1155;DHT22;566;48.414;9.118;2023-04-24T08:27:18;9.30;97.40
1155;DHT22;566;48.414;9.118;2023-04-24T08:29:44;9.10;97.40
1155;DHT22;566;48.414;9.118;2023-04-24T08:32:10;9.00;97.60
1155;DHT22;566;48.414;9.118;2023-04-24T08:34:35;9.10;97.70
1155;DHT22;566;48.414;9.118;2023-04-24T08:37:01;9.50;97.10
1155;DHT22;566;48.414;9.118;2023-04-24T08:39:27;9.30;96.40
1155;DHT22;566;48.414;9.118;2023-04-24T08:41:53;9.10;96.60
1155;DHT22;566;48.414;9.118;2023-04-24T08:44:19;9.00;97.50
1155;DHT22;566;48.414;9.118;2023-04-24T08:46:47;9.10;97.10
1155;DHT22;566;48.414;9.118;2023-04-24T08:49:14;9.10;96.50
1155;DHT22;566;48.414;9.118;2023-04-24T08:51:41;9.00;95.20
1155;DHT22;566;48.414;9.118;2023-04-24T08:54:07;9.30;95.90
1155;DHT22;566;48.414;9.118;2023-04-24T08:56:34;9.50;92.80
1155;DHT22;566;48.414;9.118;2023-04-24T08:59:03;9.70;93.70
1155;DHT22;566;48.414;9.118;2023-04-24T09:01:32;9.60;93.30
1155;DHT22;566;48.414;9.118;2023-04-24T09:04:03;9.60;93.00
1155;DHT22;566;48.414;9.118;2023-04-24T09:06:30;9.80;92.40
1155;DHT22;566;48.414;9.118;2023-04-24T09:09:00;9.90;90.50
1155;DHT22;566;48.414;9.118;2023-04-24T09:11:26;10.00;90.70
1155;DHT22;566;48.414;9.118;2023-04-24T09:13:53;10.30;90.50
1155;DHT22;566;48.414;9.118;2023-04-24T09:16:20;10.60;90.70
1155;DHT22;566;48.414;9.118;2023-04-24T09:18:46;11.10;88.50
1155;DHT22;566;48.414;9.118;2023-04-24T09:21:11;11.30;89.00
1155;DHT22;566;48.414;9.118;2023-04-24T09:23:37;12.60;87.00
1155;DHT22;566;48.414;9.118;2023-04-24T09:26:04;12.50;85.10
1155;DHT22;566;48.414;9.118;2023-04-24T09:28:38;11.10;87.90
1155;DHT22;566;48.414;9.118;2023-04-24T09:31:23;10.10;91.90
1155;DHT22;566;48.414;9.118;2023-04-24T09:34:00;9.20;94.40
1155;DHT22;566;48.414;9.118;2023-04-24T09:36:29;8.60;97.30
1155;DHT22;566;48.414;9.118;2023-04-24T09:39:01;8.20;98.00
1155;DHT22;566;48.414;9.118;2023-04-24T09:41:28;7.80;97.40
1155;DHT22;566;48.414;9.118;2023-04-24T09:43:55;7.70;98.00
1155;DHT22;566;48.414;9.118;2023-04-24T09:46:20;7.90;97.40
1155;DHT22;566;48.414;9.118;2023-04-24T09:48:49;8.30;97.50
1155;DHT22;566;48.414;9.118;2023-04-24T09:51:14;9.20;97.80
1155;DHT22;566;48.414;9.118;2023-04-24T09:53:47;10.70;95.00
1155;DHT22;566;48.414;9.118;2023-04-24T09:56:12;11.60;89.60
1155;DHT22;566;48.414;9.118;2023-04-24T09:58:38;11.50;89.40
1155;DHT22;566;48.414;9.118;2023-04-24T10:01:05;11.70;87.30
1155;DHT22;566;48.414;9.118;2023-04-24T10:03:32;12.20;86.40
1155;DHT22;566;48.414;9.118;2023-04-24T10:06:02;12.90;84.30
1155;DHT22;566;48.414;9.118;2023-04-24T10:08:34;12.70;82.70
1155;DHT22;566;48.414;9.118;2023-04-24T10:11:00;11.50;84.30
1155;DHT22;566;48.414;9.118;2023-04-24T10:13:26;10.60;87.00
1155;DHT22;566;48.414;9.118;2023-04-24T10:15:53;10.10;88.80
1155;DHT22;566;48.414;9.118;2023-04-24T10:18:20;10.10;88.40
1155;DHT22;566;48.414;9.118;2023-04-24T10:20:47;10.90;88.10
1155;DHT22;566;48.414;9.118;2023-04-24T10:23:12;11.70;85.20
1155;DHT22;566;48.414;9.118;2023-04-24T10:25:38;11.60;81.50
1155;DHT22;566;48.414;9.118;2023-04-24T10:28:04;11.30;82.30
1155;DHT22;566;48.414;9.118;2023-04-24T10:30:33;11.20;81.00
1155;DHT22;566;48.414;9.118;2023-04-24T10:33:03;10.70;83.30
1155;DHT22;566;48.414;9.118;2023-04-24T10:35:41;10.40;82.30
1155;DHT22;566;48.414;9.118;2023-04-24T10:38:16;10.90;82.60
1155;DHT22;566;48.414;9.118;2023-04-24T10:40:43;11.80;80.20
1155;DHT22;566;48.414;9.118;2023-04-24T10:43:09;12.70;79.10
1155;DHT22;566;48.414;9.118;2023-04-24T10:45:39;13.30;77.50
1155;DHT22;566;48.414;9.118;2023-04-24T10:48:07;13.50;76.30
1155;DHT22;566;48.414;9.118;2023-04-24T10:50:46;13.40;75.40
1155;DHT22;566;48.414;9.118;2023-04-24T10:53:18;12.90;75.50
1155;DHT22;566;48.414;9.118;2023-04-24T10:58:10;12.70;78.30
1155;DHT22;566;48.414;9.118;2023-04-24T11:00:38;12.10;79.20
1155;DHT22;566;48.414;9.118;2023-04-24T11:03:26;11.50;78.50
1155;DHT22;566;48.414;9.118;2023-04-24T11:11:03;11.00;79.40
1155;DHT22;566;48.414;9.118;2023-04-24T11:16:37;10.10;82.40
1155;DHT22;566;48.414;9.118;2023-04-24T11:19:09;10.10;82.90
1155;DHT22;566;48.414;9.118;2023-04-24T11:27:21;11.10;81.10
1155;DHT22;566;48.414;9.118;2023-04-24T11:32:25;11.20;81.40
1155;DHT22;566;48.414;9.118;2023-04-24T11:34:53;11.20;81.20
1155;DHT22;566;48.414;9.118;2023-04-24T11:37:19;10.90;80.60
1155;DHT22;566;48.414;9.118;2023-04-24T11:39:45;10.60;81.60
1155;DHT22;566;48.414;9.118;2023-04-24T11:42:10;11.20;81.40
1155;DHT22;566;48.414;9.118;2023-04-24T11:44:39;11.60;79.90
1155;DHT22;566;48.414;9.118;2023-04-24T11:47:06;11.20;80.40
1155;DHT22;566;48.414;9.118;2023-04-24T11:49:37;10.90;80.50
1155;DHT22;566;48.414;9.118;2023-04-24T11:52:03;11.00;81.90
1155;DHT22;566;48.414;9.118;2023-04-24T11:54:29;10.80;81.30
1155;DHT22;566;48.414;9.118;2023-04-24T11:56:57;10.70;82.30
1155;DHT22;566;48.414;9.118;2023-04-24T11:59:23;10.70;82.50
1155;DHT22;566;48.414;9.118;2023-04-24T12:01:49;10.60;82.40
1155;DHT22;566;48.414;9.118;2023-04-24T12:04:16;10.30;83.00
1155;DHT22;566;48.414;9.118;2023-04-24T12:07:03;10.10;83.60
1155;DHT22;566;48.414;9.118;2023-04-24T12:09:40;10.30;84.10
1155;DHT22;566;48.414;9.118;2023-04-24T12:12:07;10.30;81.90
1155;DHT22;566;48.414;9.118;2023-04-24T12:14:32;10.20;81.60
1155;DHT22;566;48.414;9.118;2023-04-24T12:16:58;10.20;82.30
1155;DHT22;566;48.414;9.118;2023-04-24T12:19:23;10.30;81.90
1155;DHT22;566;48.414;9.118;2023-04-24T12:22:00;10.30;82.70
1155;DHT22;566;48.414;9.118;2023-04-24T12:24:25;10.10;82.20
1155;DHT22;566;48.414;9.118;2023-04-24T12:26:51;9.60;84.10
1155;DHT22;566;48.414;9.118;2023-04-24T12:29:22;9.40;85.50
1155;DHT22;566;48.414;9.118;2023-04-24T12:31:51;9.30;85.70
1155;DHT22;566;48.414;9.118;2023-04-24T12:34:24;9.20;86.90
1155;DHT22;566;48.414;9.118;2023-04-24T12:36:50;9.20;87.10
1155;DHT22;566;48.414;9.118;2023-04-24T12:39:17;9.40;86.20
1155;DHT22;566;48.414;9.118;2023-04-24T12:41:56;9.70;85.00
1155;DHT22;566;48.414;9.118;2023-04-24T12:44:30;9.70;84.90
1155;DHT22;566;48.414;9.118;2023-04-24T12:46:57;9.70;85.20
1155;DHT22;566;48.414;9.118;2023-04-24T12:49:22;10.00;85.80
1155;DHT22;566;48.414;9.118;2023-04-24T12:51:48;10.10;83.10
1155;DHT22;566;48.414;9.118;2023-04-24T12:54:14;10.00;83.10
1155;DHT22;566;48.414;9.118;2023-04-24T12:56:42;9.80;83.90
1155;DHT22;566;48.414;9.118;2023-04-24T12:59:08;9.90;82.90
1155;DHT22;566;48.414;9.118;2023-04-24T13:01:33;10.10;82.50
1155;DHT22;566;48.414;9.118;2023-04-24T13:03:59;10.40;81.40
1155;DHT22;566;48.414;9.118;2023-04-24T13:06:24;10.80;80.60
1155;DHT22;566;48.414;9.118;2023-04-24T13:08:51;10.90;80.60
1155;DHT22;566;48.414;9.118;2023-04-24T13:11:17;10.90;80.80
1155;DHT22;566;48.414;9.118;2023-04-24T13:13:43;11.10;80.60
1155;DHT22;566;48.414;9.118;2023-04-24T13:16:09;11.30;80.50
1155;DHT22;566;48.414;9.118;2023-04-24T13:18:34;11.50;78.90
1155;DHT22;566;48.414;9.118;2023-04-24T13:21:00;11.50;80.10
1155;DHT22;566;48.414;9.118;2023-04-24T13:23:26;12.20;79.10
1155;DHT22;566;48.414;9.118;2023-04-24T13:25:51;12.20;75.50
1155;DHT22;566;48.414;9.118;2023-04-24T13:28:17;12.30;77.00
1155;DHT22;566;48.414;9.118;2023-04-24T13:30:43;12.20;77.90
1155;DHT22;566;48.414;9.118;2023-04-24T13:33:09;12.40;76.30
1155;DHT22;566;48.414;9.118;2023-04-24T13:35:34;12.40;75.50
1155;DHT22;566;48.414;9.118;2023-04-24T13:38:00;12.10;76.70
1155;DHT22;566;48.414;9.118;2023-04-24T13:40:27;11.70;76.90
1155;DHT22;566;48.414;9.118;2023-04-24T13:42:52;11.30;78.20
1155;DHT22;566;48.414;9.118;2023-04-24T13:45:18;11.30;78.40
1155;DHT22;566;48.414;9.118;2023-04-24T13:47:44;11.30;79.00
1155;DHT22;566;48.414;9.118;2023-04-24T13:50:10;11.30;79.20
1155;DHT22;566;48.414;9.118;2023-04-24T13:52:35;11.50;79.60
1155;DHT22;566;48.414;9.118;2023-04-24T13:55:01;12.10;77.90
1155;DHT22;566;48.414;9.118;2023-04-24T13:57:26;12.00;77.10
1155;DHT22;566;48.414;9.118;2023-04-24T13:59:53;11.60;77.10
1155;DHT22;566;48.414;9.118;2023-04-24T14:02:20;11.40;78.10
1155;DHT22;566;48.414;9.118;2023-04-24T14:04:46;11.50;78.50
1155;DHT22;566;48.414;9.118;2023-04-24T14:07:13;11.70;76.70
1155;DHT22;566;48.414;9.118;2023-04-24T14:09:39;11.90;76.30
1155;DHT22;566;48.414;9.118;2023-04-24T14:12:04;11.70;75.70
1155;DHT22;566;48.414;9.118;2023-04-24T14:14:31;11.50;76.60
1155;DHT22;566;48.414;9.118;2023-04-24T14:16:57;11.30;76.90
1155;DHT22;566;48.414;9.118;2023-04-24T14:19:22;10.90;76.90
1155;DHT22;566;48.414;9.118;2023-04-24T14:21:49;10.90;78.40
1155;DHT22;566;48.414;9.118;2023-04-24T14:24:15;11.00;77.80
1155;DHT22;566;48.414;9.118;2023-04-24T14:26:41;10.90;77.70
1155;DHT22;566;48.414;9.118;2023-04-24T14:29:06;10.90;78.60
1155;DHT22;566;48.414;9.118;2023-04-24T14:31:32;11.10;78.30
1155;DHT22;566;48.414;9.118;2023-04-24T14:33:57;11.20;78.20
1155;DHT22;566;48.414;9.118;2023-04-24T14:36:24;11.30;78.20
1155;DHT22;566;48.414;9.118;2023-04-24T14:38:49;11.60;79.30
1155;DHT22;566;48.414;9.118;2023-04-24T14:41:15;11.70;78.50
1155;DHT22;566;48.414;9.118;2023-04-24T14:43:40;11.80;78.30
1155;DHT22;566;48.414;9.118;2023-04-24T14:46:06;11.50;79.10
1155;DHT22;566;48.414;9.118;2023-04-24T14:48:32;11.50;77.70
1155;DHT22;566;48.414;9.118;2023-04-24T14:50:57;11.40;78.40
1155;DHT22;566;48.414;9.118;2023-04-24T14:53:23;11.30;78.80
1155;DHT22;566;48.414;9.118;2023-04-24T14:55:49;11.10;79.50
1155;DHT22;566;48.414;9.118;2023-04-24T14:58:15;11.00;79.70
1155;DHT22;566;48.414;9.118;2023-04-24T15:00:40;11.00;79.90
1155;DHT22;566;48.414;9.118;2023-04-24T15:03:06;10.80;80.00
1155;DHT22;566;48.414;9.118;2023-04-24T15:05:32;10.80;79.70
1155;DHT22;566;48.414;9.118;2023-04-24T15:07:59;10.90;80.60
1155;DHT22;566;48.414;9.118;2023-04-24T15:10:25;11.10;79.10
1155;DHT22;566;48.414;9.118;2023-04-24T15:12:51;11.00;80.00
1155;DHT22;566;48.414;9.118;2023-04-24T15:15:19;11.20;80.30
1155;DHT22;566;48.414;9.118;2023-04-24T15:17:47;11.30;79.80
1155;DHT22;566;48.414;9.118;2023-04-24T15:20:12;11.10;79.90
1155;DHT22;566;48.414;9.118;2023-04-24T15:22:38;11.00;80.40
1155;DHT22;566;48.414;9.118;2023-04-24T15:25:04;10.90;80.90
1155;DHT22;566;48.414;9.118;2023-04-24T15:27:44;10.80;80.00
1155;DHT22;566;48.414;9.118;2023-04-24T15:30:10;10.70;81.00
1155;DHT22;566;48.414;9.118;2023-04-24T15:32:36;10.70;81.10
1155;DHT22;566;48.414;9.118;2023-04-24T15:35:02;10.80;81.60
1155;DHT22;566;48.414;9.118;2023-04-24T15:37:27;10.90;81.80
1155;DHT22;566;48.414;9.118;2023-04-24T15:39:53;11.10;81.60
1155;DHT22;566;48.414;9.118;2023-04-24T15:42:19;11.20;81.00
1155;DHT22;566;48.414;9.118;2023-04-24T15:44:44;11.30;80.80
1155;DHT22;566;48.414;9.118;2023-04-24T15:47:10;10.90;80.10
1155;DHT22;566;48.414;9.118;2023-04-24T15:49:37;10.70;81.60
1155;DHT22;566;48.414;9.118;2023-04-24T15:52:02;10.80;81.50
1155;DHT22;566;48.414;9.118;2023-04-24T15:54:28;10.70;81.50
1155;DHT22;566;48.414;9.118;2023-04-24T15:56:53;10.80;81.40
1155;DHT22;566;48.414;9.118;2023-04-24T15:59:19;10.90;80.70
1155;DHT22;566;48.414;9.118;2023-04-24T16:01:47;10.90;80.90
1155;DHT22;566;48.414;9.118;2023-04-24T16:04:13;11.00;80.70
1155;DHT22;566;48.414;9.118;2023-04-24T16:06:39;11.00;79.90
1155;DHT22;566;48.414;9.118;2023-04-24T16:09:04;10.90;79.70
1155;DHT22;566;48.414;9.118;2023-04-24T16:11:30;11.00;80.20
1155;DHT22;566;48.414;9.118;2023-04-24T16:13:57;11.20;79.80
1155;DHT22;566;48.414;9.118;2023-04-24T16:16:22;11.10;79.20
1155;DHT22;566;48.414;9.118;2023-04-24T16:18:48;11.10;80.70
1155;DHT22;566;48.414;9.118;2023-04-24T16:21:14;11.30;80.50
1155;DHT22;566;48.414;9.118;2023-04-24T16:23:41;11.30;79.90
1155;DHT22;566;48.414;9.118;2023-04-24T16:26:06;11.00;80.30
1155;DHT22;566;48.414;9.118;2023-04-24T16:28:32;11.00;81.40
1155;DHT22;566;48.414;9.118;2023-04-24T16:30:57;10.90;80.90
1155;DHT22;566;48.414;9.118;2023-04-24T16:33:23;10.90;81.20
1155;DHT22;566;48.414;9.118;2023-04-24T16:35:50;11.00;81.50
1155;DHT22;566;48.414;9.118;2023-04-24T16:38:16;11.20;81.20
1155;DHT22;566;48.414;9.118;2023-04-24T16:40:42;12.00;79.70